sensor_id;sensor_type;location;lat;lon;timestamp;pressure;altitude;pressure_sealevel;temperature;humidity
76627;BME280;65519;53.230;10.390;2023-10-31T00:02:16;99098.16;;;11.49;100.00
76627;BME280;65519;53.230;10.390;2023-10-31T00:04:42;99088.53;;;11.52;100.00
76627;BME280;65519;53.230;10.390;2023-10-31T00:07:07;99090.81;;;11.58;100.00
76627;BME280;65519;53.230;10.390;2023-10-31T00:09:33;99089.34;;;11.52;100.00
76627;BME280;65519;53.230;10.390;2023-10-31T00:11:58;99076.19;;;11.54;100.00
76627;BME280;65519;53.230;10.390;2023-10-31T00:14:24;99073.81;;;11.61;100.00
76627;BME280;65519;53.230;10.390;2023-10-31T00:16:50;99081.19;;;11.61;100.00
76627;BME280;65519;53.230;10.390;2023-10-31T00:19:15;99074.44;;;11.58;100.00
76627;BME280;65519;53.230;10.390;2023-10-31T00:21:41;99073.47;;;11.54;100.00
76627;BME280;65519;53.230;10.390;2023-10-31T00:24:06;99072.97;;;11.52;100.00
76627;BME280;65519;53.230;10.390;2023-10-31T00:26:32;99069.63;;;11.55;100.00
76627;BME280;65519;53.230;10.390;2023-10-31T00:28:57;99075.72;;;11.52;100.00
76627;BME280;65519;53.230;10.390;2023-10-31T00:31:23;99077.94;;;11.50;100.00
76627;BME280;65519;53.230;10.390;2023-10-31T00:33:48;99072.78;;;11.49;100.00
76627;BME280;65519;53.230;10.390;2023-10-31T00:36:14;99063.34;;;11.46;100.00
76627;BME280;65519;53.230;10.390;2023-10-31T00:38:39;99059.94;;;11.49;100.00
76627;BME280;65519;53.230;10.390;2023-10-31T00:41:05;99062.69;;;11.49;100.00
76627;BME280;65519;53.230;10.390;2023-10-31T00:43:30;99055.91;;;11.47;100.00
76627;BME280;65519;53.230;10.390;2023-10-31T00:45:56;99051.75;;;11.49;100.00
76627;BME280;65519;53.230;10.390;2023-10-31T00:48:21;99051.47;;;11.51;100.00
76627;BME280;65519;53.230;10.390;2023-10-31T00:50:47;99044.06;;;11.51;100.00
76627;BME280;65519;53.230;10.390;2023-10-31T00:53:12;99041.97;;;11.48;100.00
76627;BME280;65519;53.230;10.390;2023-10-31T00:55:40;99044.69;;;11.48;100.00
76627;BME280;65519;53.230;10.390;2023-10-31T00:58:06;99042.25;;;11.38;100.00
76627;BME280;65519;53.230;10.390;2023-10-31T01:00:32;99043.72;;;11.44;100.00
76627;BME280;65519;53.230;10.390;2023-10-31T01:02:59;99043.72;;;11.44;100.00
76627;BME280;65519;53.230;10.390;2023-10-31T01:05:25;99045.06;;;11.55;100.00
76627;BME280;65519;53.230;10.390;2023-10-31T01:07:52;99040.41;;;11.56;100.00
76627;BME280;65519;53.230;10.390;2023-10-31T01:10:17;99039.59;;;11.55;100.00
76627;BME280;65519;53.230;10.390;2023-10-31T01:12:43;99038.50;;;11.56;100.00
76627;BME280;65519;53.230;10.390;2023-10-31T01:15:08;99033.03;;;11.56;100.00
76627;BME280;65519;53.230;10.390;2023-10-31T01:17:34;99034.94;;;11.56;100.00
76627;BME280;65519;53.230;10.390;2023-10-31T01:19:59;99027.56;;;11.56;100.00
76627;BME280;65519;53.230;10.390;2023-10-31T01:22:25;99040.75;;;11.63;100.00
76627;BME280;65519;53.230;10.390;2023-10-31T01:24:50;99026.59;;;11.52;100.00
76627;BME280;65519;53.230;10.390;2023-10-31T01:27:16;99031.88;;;11.57;100.00
76627;BME280;65519;53.230;10.390;2023-10-31T01:29:41;99032.25;;;11.64;100.00
76627;BME280;65519;53.230;10.390;2023-10-31T01:32:07;99036.09;;;11.63;100.00
76627;BME280;65519;53.230;10.390;2023-10-31T01:34:32;99028.84;;;11.59;100.00
76627;BME280;65519;53.230;10.390;2023-10-31T01:36:58;99029.50;;;11.56;100.00
76627;BME280;65519;53.230;10.390;2023-10-31T01:39:23;99029.50;;;11.56;100.00
76627;BME280;65519;53.230;10.390;2023-10-31T01:41:49;99027.09;;;11.54;100.00
76627;BME280;65519;53.230;10.390;2023-10-31T01:44:14;99024.66;;;11.53;100.00
76627;BME280;65519;53.230;10.390;2023-10-31T01:46:40;99022.25;;;11.51;100.00
76627;BME280;65519;53.230;10.390;2023-10-31T01:49:05;99014.38;;;11.50;100.00
76627;BME280;65519;53.230;10.390;2023-10-31T01:51:30;99010.34;;;11.47;100.00
76627;BME280;65519;53.230;10.390;2023-10-31T01:53:56;99007.31;;;11.49;100.00
76627;BME280;65519;53.230;10.390;2023-10-31T01:56:22;99010.22;;;11.52;100.00
76627;BME280;65519;53.230;10.390;2023-10-31T01:58:49;99001.56;;;11.59;100.00
76627;BME280;65519;53.230;10.390;2023-10-31T02:01:16;99002.22;;;11.56;100.00
76627;BME280;65519;53.230;10.390;2023-10-31T02:03:42;99000.09;;;11.53;100.00
76627;BME280;65519;53.230;10.390;2023-10-31T02:06:07;98989.81;;;11.50;100.00
76627;BME280;65519;53.230;10.390;2023-10-31T02:08:33;98986.16;;;11.54;100.00
76627;BME280;65519;53.230;10.390;2023-10-31T02:10:59;98975.84;;;11.51;100.00
76627;BME280;65519;53.230;10.390;2023-10-31T02:13:25;98980.31;;;11.47;100.00
76627;BME280;65519;53.230;10.390;2023-10-31T02:15:50;98965.09;;;11.46;100.00
76627;BME280;65519;53.230;10.390;2023-10-31T02:18:16;98966.56;;;11.52;100.00
76627;BME280;65519;53.230;10.390;2023-10-31T02:20:42;98963.50;;;11.45;100.00
76627;BME280;65519;53.230;10.390;2023-10-31T02:23:08;98958.84;;;11.46;100.00
76627;BME280;65519;53.230;10.390;2023-10-31T02:25:34;98945.50;;;11.44;100.00
76627;BME280;65519;53.230;10.390;2023-10-31T02:27:59;98938.13;;;11.45;100.00
76627;BME280;65519;53.230;10.390;2023-10-31T02:30:25;98942.00;;;11.52;100.00
76627;BME280;65519;53.230;10.390;2023-10-31T02:32:50;98935.56;;;11.48;100.00
76627;BME280;65519;53.230;10.390;2023-10-31T02:35:17;98940.53;;;11.46;100.00
76627;BME280;65519;53.230;10.390;2023-10-31T02:37:43;98937.81;;;11.46;100.00
76627;BME280;65519;53.230;10.390;2023-10-31T02:40:09;98937.16;;;11.49;100.00
76627;BME280;65519;53.230;10.390;2023-10-31T02:42:35;98944.22;;;11.50;100.00
76627;BME280;65519;53.230;10.390;2023-10-31T02:45:01;98939.41;;;11.47;100.00
76627;BME280;65519;53.230;10.390;2023-10-31T02:47:26;98939.56;;;11.51;100.00
76627;BME280;65519;53.230;10.390;2023-10-31T02:49:51;98933.00;;;11.52;100.00
76627;BME280;65519;53.230;10.390;2023-10-31T02:52:17;98928.47;;;11.47;100.00
76627;BME280;65519;53.230;10.390;2023-10-31T02:54:42;98939.56;;;11.51;100.00
76627;BME280;65519;53.230;10.390;2023-10-31T02:57:08;98940.38;;;11.51;100.00
76627;BME280;65519;53.230;10.390;2023-10-31T02:59:33;98937.03;;;11.54;100.00
76627;BME280;65519;53.230;10.390;2023-10-31T03:01:59;98933.00;;;11.52;100.00
76627;BME280;65519;53.230;10.390;2023-10-31T03:04:25;98930.09;;;11.48;100.00
76627;BME280;65519;53.230;10.390;2023-10-31T03:06:50;98932.88;;;11.57;100.00
76627;BME280;65519;53.230;10.390;2023-10-31T03:09:16;98927.72;;;11.55;100.00
76627;BME280;65519;53.230;10.390;2023-10-31T03:11:41;98926.75;;;11.51;100.00
76627;BME280;65519;53.230;10.390;2023-10-31T03:14:07;98920.66;;;11.54;100.00
76627;BME280;65519;53.230;10.390;2023-10-31T03:16:32;98916.31;;;11.53;100.00
76627;BME280;65519;53.230;10.390;2023-10-31T03:18:58;98911.19;;;11.60;100.00
76627;BME280;65519;53.230;10.390;2023-10-31T03:21:24;98908.44;;;11.60;100.00
76627;BME280;65519;53.230;10.390;2023-10-31T03:23:50;98909.56;;;11.59;100.00
76627;BME280;65519;53.230;10.390;2023-10-31T03:26:19;98903.47;;;11.62;100.00
76627;BME280;65519;53.230;10.390;2023-10-31T03:28:45;98898.81;;;11.63;100.00
76627;BME280;65519;53.230;10.390;2023-10-31T03:31:11;98897.84;;;11.59;100.00
76627;BME280;65519;53.230;10.390;2023-10-31T03:33:37;98908.94;;;11.62;100.00
76627;BME280;65519;53.230;10.390;2023-10-31T03:36:03;98912.16;;;11.64;100.00
76627;BME280;65519;53.230;10.390;2023-10-31T03:38:29;98894.16;;;11.63;100.00
76627;BME280;65519;53.230;10.390;2023-10-31T03:40:54;98886.19;;;11.76;100.00
76627;BME280;65519;53.230;10.390;2023-10-31T03:43:20;98892.75;;;11.83;100.00
76627;BME280;65519;53.230;10.390;2023-10-31T03:45:46;98895.19;;;11.76;100.00
76627;BME280;65519;53.230;10.390;2023-10-31T03:48:13;98892.25;;;11.73;100.00
76627;BME280;65519;53.230;10.390;2023-10-31T03:50:38;98890.84;;;11.75;100.00
76627;BME280;65519;53.230;10.390;2023-10-31T03:53:03;98901.13;;;11.78;100.00
76627;BME280;65519;53.230;10.390;2023-10-31T03:55:29;98892.94;;;11.78;100.00
76627;BME280;65519;53.230;10.390;2023-10-31T03:57:55;98883.94;;;11.78;100.00
76627;BME280;65519;53.230;10.390;2023-10-31T04:00:21;98887.00;;;11.85;100.00
76627;BME280;65519;53.230;10.390;2023-10-31T04:02:47;98886.81;;;11.90;100.00
76627;BME280;65519;53.230;10.390;2023-10-31T04:05:13;98886.03;;;11.89;100.00
76627;BME280;65519;53.230;10.390;2023-10-31T04:07:39;98888.28;;;11.96;100.00
76627;BME280;65519;53.230;10.390;2023-10-31T04:10:05;98883.63;;;11.96;100.00
76627;BME280;65519;53.230;10.390;2023-10-31T04:12:31;98888.41;;;11.91;100.00
76627;BME280;65519;53.230;10.390;2023-10-31T04:14:57;98886.19;;;11.93;100.00
76627;BME280;65519;53.230;10.390;2023-10-31T04:17:22;98883.13;;;11.94;100.00
76627;BME280;65519;53.230;10.390;2023-10-31T04:19:48;98884.59;;;12.00;100.00
76627;BME280;65519;53.230;10.390;2023-10-31T04:22:13;98884.72;;;12.04;100.00
76627;BME280;65519;53.230;10.390;2023-10-31T04:24:39;98877.34;;;11.96;100.00
76627;BME280;65519;53.230;10.390;2023-10-31T04:27:04;98873.97;;;11.99;100.00
76627;BME280;65519;53.230;10.390;2023-10-31T04:29:30;98871.56;;;11.97;100.00
76627;BME280;65519;53.230;10.390;2023-10-31T04:31:55;98867.56;;;11.95;100.00
76627;BME280;65519;53.230;10.390;2023-10-31T04:34:21;98875.09;;;11.98;100.00
76627;BME280;65519;53.230;10.390;2023-10-31T04:36:46;98866.91;;;11.98;100.00
76627;BME280;65519;53.230;10.390;2023-10-31T04:39:11;98862.91;;;11.95;100.00
76627;BME280;65519;53.230;10.390;2023-10-31T04:41:37;98863.06;;;11.99;100.00
76627;BME280;65519;53.230;10.390;2023-10-31T04:44:02;98867.22;;;11.96;100.00
76627;BME280;65519;53.230;10.390;2023-10-31T04:46:28;98861.94;;;12.00;100.00
76627;BME280;65519;53.230;10.390;2023-10-31T04:48:53;98858.06;;;12.01;100.00
76627;BME280;65519;53.230;10.390;2023-10-31T04:51:19;98853.75;;;12.00;100.00
76627;BME280;65519;53.230;10.390;2023-10-31T04:53:45;98842.81;;;12.00;100.00
76627;BME280;65519;53.230;10.390;2023-10-31T04:56:15;98849.41;;;11.99;100.00
76627;BME280;65519;53.230;10.390;2023-10-31T04:58:44;98835.88;;;12.02;100.00
76627;BME280;65519;53.230;10.390;2023-10-31T05:01:13;98838.16;;;12.00;100.00
76627;BME280;65519;53.230;10.390;2023-10-31T05:03:39;98843.13;;;12.07;100.00
76627;BME280;65519;53.230;10.390;2023-10-31T05:06:05;98841.66;;;12.01;100.00
76627;BME280;65519;53.230;10.390;2023-10-31T05:08:31;98848.28;;;12.00;100.00
76627;BME280;65519;53.230;10.390;2023-10-31T05:10:58;98859.84;;;11.97;100.00
76627;BME280;65519;53.230;10.390;2023-10-31T05:13:23;98861.13;;;11.99;100.00
76627;BME280;65519;53.230;10.390;2023-10-31T05:15:49;98859.69;;;11.93;100.00
76627;BME280;65519;53.230;10.390;2023-10-31T05:18:15;98861.28;;;11.94;100.00
76627;BME280;65519;53.230;10.390;2023-10-31T05:20:40;98852.13;;;11.90;100.00
76627;BME280;65519;53.230;10.390;2023-10-31T05:23:06;98853.41;;;11.93;100.00
76627;BME280;65519;53.230;10.390;2023-10-31T05:25:32;98851.66;;;11.88;100.00
76627;BME280;65519;53.230;10.390;2023-10-31T05:27:57;98849.75;;;11.89;100.00
76627;BME280;65519;53.230;10.390;2023-10-31T05:30:23;98844.09;;;11.94;100.00
76627;BME280;65519;53.230;10.390;2023-10-31T05:32:49;98847.16;;;11.92;100.00
76627;BME280;65519;53.230;10.390;2023-10-31T05:35:15;98841.56;;;11.89;100.00
76627;BME280;65519;53.230;10.390;2023-10-31T05:37:40;98840.88;;;11.92;100.00
76627;BME280;65519;53.230;10.390;2023-10-31T05:40:06;98836.09;;;11.89;100.00
76627;BME280;65519;53.230;10.390;2023-10-31T05:42:32;98838.47;;;11.90;100.00
76627;BME280;65519;53.230;10.390;2023-10-31T05:44:57;98830.75;;;11.92;100.00
76627;BME280;65519;53.230;10.390;2023-10-31T05:47:23;98833.19;;;11.94;100.00
76627;BME280;65519;53.230;10.390;2023-10-31T05:49:48;98842.66;;;11.96;100.00
76627;BME280;65519;53.230;10.390;2023-10-31T05:52:14;98843.78;;;11.95;100.00
76627;BME280;65519;53.230;10.390;2023-10-31T05:54:40;98837.34;;;11.91;100.00
76627;BME280;65519;53.230;10.390;2023-10-31T05:57:05;98847.94;;;11.93;100.00
76627;BME280;65519;53.230;10.390;2023-10-31T05:59:30;98852.28;;;11.94;100.00
76627;BME280;65519;53.230;10.390;2023-10-31T06:01:57;98851.81;;;11.92;100.00
76627;BME280;65519;53.230;10.390;2023-10-31T06:04:23;98847.97;;;11.84;100.00
76627;BME280;65519;53.230;10.390;2023-10-31T06:06:50;98856.97;;;11.85;100.00
76627;BME280;65519;53.230;10.390;2023-10-31T06:09:16;98859.38;;;11.78;100.00
76627;BME280;65519;53.230;10.390;2023-10-31T06:11:42;98861.09;;;11.74;100.00
76627;BME280;65519;53.230;10.390;2023-10-31T06:14:08;98872.66;;;11.70;100.00
76627;BME280;65519;53.230;10.390;2023-10-31T06:16:48;98870.09;;;11.65;100.00
76627;BME280;65519;53.230;10.390;2023-10-31T06:19:13;98866.56;;;11.65;100.00
76627;BME280;65519;53.230;10.390;2023-10-31T06:21:38;98860.44;;;11.59;100.00
76627;BME280;65519;53.230;10.390;2023-10-31T06:24:07;98860.31;;;11.56;100.00
76627;BME280;65519;53.230;10.390;2023-10-31T06:26:33;98861.56;;;11.50;100.00
76627;BME280;65519;53.230;10.390;2023-10-31T06:28:58;98863.50;;;11.49;100.00
76627;BME280;65519;53.230;10.390;2023-10-31T06:31:24;98871.53;;;11.46;100.00
76627;BME280;65519;53.230;10.390;2023-10-31T06:33:49;98882.09;;;11.39;100.00
76627;BME280;65519;53.230;10.390;2023-10-31T06:36:14;98881.13;;;11.34;100.00
76627;BME280;65519;53.230;10.390;2023-10-31T06:38:40;98885.63;;;11.30;100.00
76627;BME280;65519;53.230;10.390;2023-10-31T06:41:05;98880.63;;;11.24;100.00
76627;BME280;65519;53.230;10.390;2023-10-31T06:43:31;98888.16;;;11.18;100.00
76627;BME280;65519;53.230;10.390;2023-10-31T06:45:56;98908.34;;;11.17;100.00
76627;BME280;65519;53.230;10.390;2023-10-31T06:48:25;98902.38;;;11.07;100.00
76627;BME280;65519;53.230;10.390;2023-10-31T06:50:51;98894.66;;;11.00;100.00
76627;BME280;65519;53.230;10.390;2023-10-31T06:53:16;98903.47;;;10.97;100.00
76627;BME280;65519;53.230;10.390;2023-10-31T06:55:42;98901.88;;;10.96;100.00
76627;BME280;65519;53.230;10.390;2023-10-31T06:58:07;98910.00;;;10.87;100.00
76627;BME280;65519;53.230;10.390;2023-10-31T07:00:32;98902.16;;;10.86;100.00
76627;BME280;65519;53.230;10.390;2023-10-31T07:02:58;98911.91;;;10.78;100.00
76627;BME280;65519;53.230;10.390;2023-10-31T07:05:24;98907.25;;;10.79;100.00
76627;BME280;65519;53.230;10.390;2023-10-31T07:07:50;98912.34;;;10.72;100.00
76627;BME280;65519;53.230;10.390;2023-10-31T07:10:16;98916.31;;;10.66;100.00
76627;BME280;65519;53.230;10.390;2023-10-31T07:12:41;98912.28;;;10.63;100.00
76627;BME280;65519;53.230;10.390;2023-10-31T07:15:07;98925.91;;;10.63;100.00
76627;BME280;65519;53.230;10.390;2023-10-31T07:17:33;98919.66;;;10.63;100.00
76627;BME280;65519;53.230;10.390;2023-10-31T07:19:58;98924.94;;;10.59;100.00
76627;BME280;65519;53.230;10.390;2023-10-31T07:22:24;98920.13;;;10.56;100.00
76627;BME280;65519;53.230;10.390;2023-10-31T07:24:50;98914.78;;;10.51;100.00
76627;BME280;65519;53.230;10.390;2023-10-31T07:27:17;98927.94;;;10.49;100.00
76627;BME280;65519;53.230;10.390;2023-10-31T07:29:42;98928.78;;;10.58;100.00
76627;BME280;65519;53.230;10.390;2023-10-31T07:32:08;98923.81;;;10.60;100.00
76627;BME280;65519;53.230;10.390;2023-10-31T07:34:34;98930.56;;;10.63;100.00
76627;BME280;65519;53.230;10.390;2023-10-31T07:37:00;98935.59;;;10.69;100.00
76627;BME280;65519;53.230;10.390;2023-10-31T07:39:25;98933.81;;;10.73;100.00
76627;BME280;65519;53.230;10.390;2023-10-31T07:41:51;98929.81;;;10.71;100.00
76627;BME280;65519;53.230;10.390;2023-10-31T07:44:16;98927.13;;;10.79;100.00
76627;BME280;65519;53.230;10.390;2023-10-31T07:46:42;98934.94;;;10.72;100.00
76627;BME280;65519;53.230;10.390;2023-10-31T07:49:07;98920.84;;;10.70;100.00
76627;BME280;65519;53.230;10.390;2023-10-31T07:51:33;98918.59;;;10.72;100.00
76627;BME280;65519;53.230;10.390;2023-10-31T07:53:58;98924.22;;;10.76;100.00
76627;BME280;65519;53.230;10.390;2023-10-31T07:56:24;98919.78;;;10.80;100.00
76627;BME280;65519;53.230;10.390;2023-10-31T07:58:50;98932.09;;;10.77;100.00
76627;BME280;65519;53.230;10.390;2023-10-31T08:01:19;98931.75;;;10.70;100.00
76627;BME280;65519;53.230;10.390;2023-10-31T08:03:46;98930.75;;;10.66;100.00
76627;BME280;65519;53.230;10.390;2023-10-31T08:06:12;98940.38;;;10.72;100.00
76627;BME280;65519;53.230;10.390;2023-10-31T08:08:38;98945.03;;;10.72;100.00
76627;BME280;65519;53.230;10.390;2023-10-31T08:11:07;98952.34;;;10.63;100.00
76627;BME280;65519;53.230;10.390;2023-10-31T08:13:33;98944.22;;;10.71;100.00
76627;BME280;65519;53.230;10.390;2023-10-31T08:15:58;98945.84;;;10.72;100.00
76627;BME280;65519;53.230;10.390;2023-10-31T08:18:23;98932.72;;;10.74;100.00
76627;BME280;65519;53.230;10.390;2023-10-31T08:20:49;98937.03;;;10.75;100.00
76627;BME280;65519;53.230;10.390;2023-10-31T08:23:16;98930.72;;;10.88;100.00
76627;BME280;65519;53.230;10.390;2023-10-31T08:25:42;98944.94;;;10.85;100.00
76627;BME280;65519;53.230;10.390;2023-10-31T08:28:08;98944.84;;;10.90;100.00
76627;BME280;65519;53.230;10.390;2023-10-31T08:30:33;98948.25;;;10.74;100.00
76627;BME280;65519;53.230;10.390;2023-10-31T08:32:59;98946.19;;;10.71;100.00
76627;BME280;65519;53.230;10.390;2023-10-31T08:35:24;98943.88;;;10.64;100.00
76627;BME280;65519;53.230;10.390;2023-10-31T08:37:50;98951.75;;;10.66;100.00
76627;BME280;65519;53.230;10.390;2023-10-31T08:40:15;98945.50;;;10.65;100.00
76627;BME280;65519;53.230;10.390;2023-10-31T08:42:41;98930.88;;;10.61;100.00
76627;BME280;65519;53.230;10.390;2023-10-31T08:45:07;98951.94;;;10.69;100.00
76627;BME280;65519;53.230;10.390;2023-10-31T08:47:33;98957.38;;;10.69;100.00
76627;BME280;65519;53.230;10.390;2023-10-31T08:49:59;98952.66;;;10.61;100.00
76627;BME280;65519;53.230;10.390;2023-10-31T08:52:24;98953.53;;;10.70;100.00
76627;BME280;65519;53.230;10.390;2023-10-31T08:54:50;98962.34;;;10.67;100.00
76627;BME280;65519;53.230;10.390;2023-10-31T08:57:15;98946.75;;;10.59;100.00
76627;BME280;65519;53.230;10.390;2023-10-31T08:59:40;98953.72;;;10.51;100.00
76627;BME280;65519;53.230;10.390;2023-10-31T09:02:06;98969.91;;;10.48;100.00
76627;BME280;65519;53.230;10.390;2023-10-31T09:04:31;98974.25;;;10.49;100.00
76627;BME280;65519;53.230;10.390;2023-10-31T09:06:57;98973.44;;;10.48;100.00
76627;BME280;65519;53.230;10.390;2023-10-31T09:09:22;98979.81;;;10.44;100.00
76627;BME280;65519;53.230;10.390;2023-10-31T09:11:48;98996.81;;;10.49;100.00
76627;BME280;65519;53.230;10.390;2023-10-31T09:14:13;98997.25;;;10.43;100.00
76627;BME280;65519;53.230;10.390;2023-10-31T09:16:39;98992.75;;;10.38;100.00
76627;BME280;65519;53.230;10.390;2023-10-31T09:19:04;98995.78;;;10.37;100.00
76627;BME280;65519;53.230;10.390;2023-10-31T09:21:30;99004.13;;;10.40;100.00
76627;BME280;65519;53.230;10.390;2023-10-31T09:23:55;99009.72;;;10.35;100.00
76627;BME280;65519;53.230;10.390;2023-10-31T09:26:21;99000.22;;;10.33;100.00
76627;BME280;65519;53.230;10.390;2023-10-31T09:28:46;99014.13;;;10.45;100.00
76627;BME280;65519;53.230;10.390;2023-10-31T09:31:18;99028.53;;;10.45;100.00
76627;BME280;65519;53.230;10.390;2023-10-31T09:33:45;99018.81;;;10.53;100.00
76627;BME280;65519;53.230;10.390;2023-10-31T09:36:11;99023.84;;;10.59;100.00
76627;BME280;65519;53.230;10.390;2023-10-31T09:38:38;99028.50;;;10.59;100.00
76627;BME280;65519;53.230;10.390;2023-10-31T09:41:04;99023.03;;;10.59;100.00
76627;BME280;65519;53.230;10.390;2023-10-31T09:43:29;99044.19;;;10.62;100.00
76627;BME280;65519;53.230;10.390;2023-10-31T09:45:55;99051.66;;;10.70;100.00
76627;BME280;65519;53.230;10.390;2023-10-31T09:48:22;99036.88;;;10.71;100.00
76627;BME280;65519;53.230;10.390;2023-10-31T09:50:47;99076.53;;;10.77;100.00
76627;BME280;65519;53.230;10.390;2023-10-31T09:53:14;99069.59;;;10.71;100.00
76627;BME280;65519;53.230;10.390;2023-10-31T09:55:42;99085.56;;;10.64;100.00
76627;BME280;65519;53.230;10.390;2023-10-31T09:58:08;99095.88;;;10.67;100.00
76627;BME280;65519;53.230;10.390;2023-10-31T10:00:33;99098.84;;;10.57;100.00
76627;BME280;65519;53.230;10.390;2023-10-31T10:03:02;99104.38;;;10.52;100.00
76627;BME280;65519;53.230;10.390;2023-10-31T10:05:30;99113.88;;;10.54;100.00
76627;BME280;65519;53.230;10.390;2023-10-31T10:07:56;99125.88;;;10.53;100.00
76627;BME280;65519;53.230;10.390;2023-10-31T10:10:22;99111.88;;;10.46;100.00
76627;BME280;65519;53.230;10.390;2023-10-31T10:12:47;99137.06;;;10.52;100.00
76627;BME280;65519;53.230;10.390;2023-10-31T10:15:13;99138.09;;;10.42;100.00
76627;BME280;65519;53.230;10.390;2023-10-31T10:17:38;99142.75;;;10.42;100.00
76627;BME280;65519;53.230;10.390;2023-10-31T10:20:11;99144.13;;;10.53;100.00
76627;BME280;65519;53.230;10.390;2023-10-31T10:22:41;99152.53;;;10.56;100.00
76627;BME280;65519;53.230;10.390;2023-10-31T10:25:16;99161.06;;;10.64;100.00
76627;BME280;65519;53.230;10.390;2023-10-31T10:27:43;99175.81;;;10.63;100.00
76627;BME280;65519;53.230;10.390;2023-10-31T10:30:09;99187.13;;;10.70;100.00
76627;BME280;65519;53.230;10.390;2023-10-31T10:32:34;99176.78;;;10.80;100.00
76627;BME280;65519;53.230;10.390;2023-10-31T10:35:00;99188.44;;;10.94;100.00
76627;BME280;65519;53.230;10.390;2023-10-31T10:37:29;99209.22;;;11.49;100.00
76627;BME280;65519;53.230;10.390;2023-10-31T10:39:56;99196.97;;;11.68;100.00
76627;BME280;65519;53.230;10.390;2023-10-31T10:42:46;99219.56;;;12.14;100.00
76627;BME280;65519;53.230;10.390;2023-10-31T10:45:14;99201.84;;;11.49;100.00
76627;BME280;65519;53.230;10.390;2023-10-31T10:47:45;99212.09;;;11.21;100.00
76627;BME280;65519;53.230;10.390;2023-10-31T10:50:12;99219.97;;;11.23;100.00
76627;BME280;65519;53.230;10.390;2023-10-31T10:52:42;99241.84;;;11.31;100.00
76627;BME280;65519;53.230;10.390;2023-10-31T10:55:25;99245.00;;;11.25;100.00
76627;BME280;65519;53.230;10.390;2023-10-31T10:58:09;99250.16;;;11.26;100.00
76627;BME280;65519;53.230;10.390;2023-10-31T11:00:37;99261.06;;;11.26;100.00
76627;BME280;65519;53.230;10.390;2023-10-31T11:03:07;99269.38;;;11.21;100.00
76627;BME280;65519;53.230;10.390;2023-10-31T11:05:33;99274.63;;;11.18;100.00
76627;BME280;65519;53.230;10.390;2023-10-31T11:08:01;99277.06;;;11.19;100.00
76627;BME280;65519;53.230;10.390;2023-10-31T11:10:27;99275.63;;;11.22;100.00
76627;BME280;65519;53.230;10.390;2023-10-31T11:12:54;99271.56;;;11.33;100.00
76627;BME280;65519;53.230;10.390;2023-10-31T11:15:20;99273.00;;;11.53;100.00
76627;BME280;65519;53.230;10.390;2023-10-31T11:17:46;99285.28;;;11.42;100.00
76627;BME280;65519;53.230;10.390;2023-10-31T11:20:16;99284.31;;;11.24;100.00
76627;BME280;65519;53.230;10.390;2023-10-31T11:22:46;99305.13;;;11.20;100.00
76627;BME280;65519;53.230;10.390;2023-10-31T11:25:21;99306.38;;;11.14;100.00
76627;BME280;65519;53.230;10.390;2023-10-31T11:27:53;99320.31;;;11.12;100.00
76627;BME280;65519;53.230;10.390;2023-10-31T11:32:58;99326.97;;;11.06;100.00
76627;BME280;65519;53.230;10.390;2023-10-31T11:35:24;99334.84;;;11.08;100.00
76627;BME280;65519;53.230;10.390;2023-10-31T11:38:01;99335.06;;;11.11;100.00
76627;BME280;65519;53.230;10.390;2023-10-31T11:40:29;99339.91;;;11.01;100.00
76627;BME280;65519;53.230;10.390;2023-10-31T11:42:58;99349.41;;;11.03;100.00
76627;BME280;65519;53.230;10.390;2023-10-31T11:48:04;99361.81;;;10.95;100.00
76627;BME280;65519;53.230;10.390;2023-10-31T11:50:33;99370.59;;;10.92;100.00
76627;BME280;65519;53.230;10.390;2023-10-31T11:53:09;99371.84;;;11.14;100.00
76627;BME280;65519;53.230;10.390;2023-10-31T11:55:41;99381.13;;;11.13;100.00
76627;BME280;65519;53.230;10.390;2023-10-31T11:58:37;99393.31;;;11.15;100.00
76627;BME280;65519;53.230;10.390;2023-10-31T12:01:04;99387.38;;;11.13;100.00
76627;BME280;65519;53.230;10.390;2023-10-31T12:03:37;99397.97;;;11.15;100.00
76627;BME280;65519;53.230;10.390;2023-10-31T12:06:04;99411.13;;;11.13;100.00
76627;BME280;65519;53.230;10.390;2023-10-31T12:08:37;99405.56;;;11.18;100.00
76627;BME280;65519;53.230;10.390;2023-10-31T12:11:13;99408.78;;;11.06;100.00
76627;BME280;65519;53.230;10.390;2023-10-31T12:13:40;99412.22;;;11.12;100.00
76627;BME280;65519;53.230;10.390;2023-10-31T12:16:10;99412.75;;;11.14;100.00
76627;BME280;65519;53.230;10.390;2023-10-31T12:18:37;99416.66;;;11.08;100.00
76627;BME280;65519;53.230;10.390;2023-10-31T12:21:04;99426.47;;;11.09;100.00
76627;BME280;65519;53.230;10.390;2023-10-31T12:23:30;99436.69;;;11.03;100.00
76627;BME280;65519;53.230;10.390;2023-10-31T12:25:55;99433.22;;;10.97;100.00
76627;BME280;65519;53.230;10.390;2023-10-31T12:28:23;99444.13;;;10.97;100.00
76627;BME280;65519;53.230;10.390;2023-10-31T12:30:51;99445.03;;;10.93;100.00
76627;BME280;65519;53.230;10.390;2023-10-31T12:33:20;99455.03;;;10.97;100.00
76627;BME280;65519;53.230;10.390;2023-10-31T12:35:48;99445.47;;;11.00;100.00
76627;BME280;65519;53.230;10.390;2023-10-31T12:38:14;99444.06;;;11.03;100.00
76627;BME280;65519;53.230;10.390;2023-10-31T12:40:41;99446.16;;;11.06;100.00
76627;BME280;65519;53.230;10.390;2023-10-31T12:43:08;99443.34;;;11.11;100.00